avis per tempestes more information blitzortung!


avis per Pluja more information rain snow radar


Visita la nostra xarxa de llocs de meteo:

Template documentation
and downloads

And another site



Thunderstorms From: 18-09-2018 09:00 Until: 19-09-2018 20:59 warning for: Thunderstorms Level: Yellow info button
Rain From: 18-09-2018 09:00 Until: 19-09-2018 20:59 warning for: Rain Level: Yellow info button

Pagina Historial Weather Underground text

Diari Resum May 8, 2017 Unitats:  Imperial    Mètric   Tant
« Previous Dia
SegĂźent Dia »
Diari Setmana Mensual Anual Personalitzada
  Maxima: Minima: Media:
Temperatura: TemperatureC °F 10.7 °F 17.7 °F
Punt de rosada: DewpointC °F 7.4 °F 10.1 °F
Humitat: Humidity % 48 % 62 %
Wind Speed: WindSpeedKMH mph 0.0 mph 6.2 mph
RĂ fegues de vent: WindSpeedGustKMH mph - -
Vent:- - SSE
Pression baro: PressurehPa in 1014.8 in -
Precipitacions: 0.0 in    
Historical Graphs
 
 
Dades de taula per May 8, 2017
Temps Temperatura Punt de rosada Pression baro Vent Wind Speed RĂ fegues de vent Humitat Rainfall Rate (Hourly)
TemperatureC °F DewpointC °F PressurehPa in Calm     Humidity % HourlyPrecipMM in
00:00 13.9 °F 9.6 °F 1019.9 in NE 4.2 mph 4.2 mph 75 % 0.0 in
00:05 13.9 °F 9.6 °F 1019.9 in NE 5.6 mph 5.6 mph 75 % 0.0 in
00:10 11.0 °F 7.7 °F 1018.8 in SW 1.6 mph 3.2 mph 80 % 0.0 in
00:20 10.9 °F 7.8 °F 1018.8 in Calm   1.6 mph 81 % 0.0 in
00:30 10.9 °F 7.9 °F 1018.8 in Calm     82 % 0.0 in
00:40 10.9 °F 7.9 °F 1018.8 in WNW 1.6 mph 1.6 mph 82 % 0.0 in
00:50 10.8 °F 7.8 °F 1017.8 in Calm     82 % 0.0 in
01:00 10.8 °F 8.0 °F 1017.8 in Calm   3.2 mph 83 % 0.0 in
01:10 10.7 °F 7.8 °F 1017.8 in Calm   1.6 mph 82 % 0.0 in
01:20 10.7 °F 7.8 °F 1018.8 in SW 1.6 mph 1.6 mph 82 % 0.0 in
01:30 10.8 °F 8.0 °F 1018.8 in Calm   1.6 mph 83 % 0.0 in
01:40 10.8 °F 8.0 °F 1018.8 in Calm     83 % 0.0 in
01:50 10.8 °F 8.2 °F 1018.8 in Calm     84 % 0.0 in
02:00 10.9 °F 8.1 °F 1018.8 in Calm     83 % 0.0 in
02:10 11.0 °F 8.4 °F 1017.8 in Calm     84 % 0.0 in
02:20 11.1 °F 8.5 °F 1017.8 in SW 1.6 mph 1.6 mph 84 % 0.0 in
02:30 11.3 °F 8.7 °F 1017.8 in Calm   1.6 mph 84 % 0.0 in
02:40 12.0 °F 9.6 °F 1018.8 in Calm     85 % 0.0 in
02:50 12.3 °F 9.5 °F 1017.8 in Calm     83 % 0.0 in
03:00 13.0 °F 10.2 °F 1017.8 in ESE 1.6 mph 1.6 mph 83 % 0.0 in
03:10 12.9 °F 9.7 °F 1018.8 in SSE 1.6 mph 3.2 mph 81 % 0.0 in
03:20 13.1 °F 9.7 °F 1018.8 in South 1.6 mph 3.2 mph 80 % 0.0 in
03:30 13.1 °F 9.7 °F 1018.8 in SSW 3.2 mph 3.2 mph 80 % 0.0 in
03:40 13.4 °F 10.0 °F 1018.8 in WSW 1.6 mph 3.2 mph 80 % 0.0 in
03:50 14.1 °F 10.5 °F 1018.8 in North 1.6 mph 4.8 mph 79 % 0.0 in
04:00 14.1 °F 10.3 °F 1018.8 in NE 4.8 mph 6.4 mph 78 % 0.0 in
04:10 14.4 °F 10.4 °F 1018.8 in NE 3.2 mph 8.0 mph 77 % 0.0 in
04:20 14.3 °F 9.9 °F 1018.8 in NE 9.7 mph 9.7 mph 75 % 0.0 in
04:30 14.4 °F 10.0 °F 1018.8 in ENE 8.0 mph 9.7 mph 75 % 0.0 in
04:40 14.3 °F 9.9 °F 1018.8 in NE 4.8 mph 12.9 mph 75 % 0.0 in
04:50 14.9 °F 10.3 °F 1018.8 in ENE 4.8 mph 6.4 mph 74 % 0.0 in
05:00 15.5 °F 10.7 °F 1018.8 in NE 4.8 mph 6.4 mph 73 % 0.0 in
05:10 15.5 °F 10.7 °F 1018.8 in NE 8.0 mph 8.0 mph 73 % 0.0 in
10:16 15.7 °F 10.4 °F 1018.8 in NE 7.4 mph 7.4 mph 71 % 0.0 in
10:21 15.6 °F 10.2 °F 1018.8 in NNE 7.4 mph 7.4 mph 70 % 0.0 in
10:26 16.4 °F 11.1 °F 1018.8 in West 5.6 mph 5.6 mph 71 % 0.0 in
10:31 17.0 °F 11.3 °F 1018.8 in NE 5.8 mph 5.8 mph 69 % 0.0 in
10:36 17.2 °F 11.2 °F 1018.8 in NW 5.6 mph 5.6 mph 68 % 0.0 in
10:41 17.3 °F 11.1 °F 1018.8 in ENE 6.1 mph 6.1 mph 67 % 0.0 in
10:46 17.1 °F 10.9 °F 1018.8 in North 7.4 mph 7.4 mph 67 % 0.0 in
10:47 17.1 °F 10.9 °F 1018.8 in WNW 7.4 mph 7.4 mph 67 % 0.0 in
10:52 17.3 °F 10.9 °F 1018.8 in NNE 7.6 mph 7.6 mph 66 % 0.0 in
10:57 17.4 °F 11.0 °F 1018.8 in NW 5.6 mph 5.6 mph 66 % 0.0 in
11:02 17.8 °F 11.1 °F 1018.8 in NW 5.6 mph 5.6 mph 65 % 0.0 in
11:07 18.3 °F 11.8 °F 1018.8 in NW 3.7 mph 3.7 mph 66 % 0.0 in
11:12 18.3 °F 11.1 °F 1018.8 in East 11.1 mph 11.1 mph 63 % 0.0 in
11:17 18.3 °F 11.4 °F 1018.8 in ENE 7.4 mph 7.4 mph 64 % 0.0 in
11:22 18.6 °F 11.4 °F 1018.8 in ENE 7.4 mph 7.4 mph 63 % 0.0 in
11:27 18.8 °F 11.6 °F 1018.8 in ENE 7.4 mph 7.4 mph 63 % 0.0 in
11:32 18.7 °F 11.3 °F 1018.8 in ESE 7.4 mph 7.4 mph 62 % 0.0 in
11:37 19.0 °F 11.3 °F 1018.8 in NE 5.6 mph 5.6 mph 61 % 0.0 in
11:42 19.3 °F 11.6 °F 1018.8 in SSW 5.6 mph 5.6 mph 61 % 0.0 in
11:47 20.2 °F 12.2 °F 1018.8 in SW 5.6 mph 5.6 mph 60 % 0.0 in
11:52 19.9 °F 11.4 °F 1018.8 in SW 3.7 mph 3.7 mph 58 % 0.0 in
11:57 20.2 °F 11.9 °F 1018.8 in West 5.3 mph 5.3 mph 59 % 0.0 in
12:02 20.5 °F 11.9 °F 1018.8 in SW 5.6 mph 5.6 mph 58 % 0.0 in
12:07 21.0 °F 12.2 °F 1018.8 in WSW 3.7 mph 3.9 mph 57 % 0.0 in
12:12 20.6 °F 11.8 °F 1017.8 in SW 7.4 mph 7.4 mph 57 % 0.0 in
12:17 21.1 °F 12.2 °F 1017.8 in NNW 4.2 mph 4.2 mph 57 % 0.0 in
12:22 21.5 °F 12.1 °F 1017.8 in ENE 5.3 mph 5.3 mph 55 % 0.0 in
12:23 21.3 °F 11.9 °F 1017.8 in SE 7.9 mph 7.9 mph 55 % 0.0 in
12:28 20.9 °F 11.5 °F 1017.8 in NE 5.6 mph 5.6 mph 55 % 0.0 in
12:33 21.6 °F 11.6 °F 1017.8 in SE 11.1 mph 11.1 mph 53 % 0.0 in
12:38 21.8 °F 11.8 °F 1017.8 in ESE 5.6 mph 5.6 mph 53 % 0.0 in
12:43 21.7 °F 12.3 °F 1016.8 in West 5.6 mph 5.6 mph 55 % 0.0 in
12:48 21.8 °F 12.1 °F 1016.8 in South 5.6 mph 5.6 mph 54 % 0.0 in
12:53 22.1 °F 11.8 °F 1016.8 in South 5.6 mph 5.6 mph 52 % 0.0 in
12:58 21.5 °F 10.9 °F 1017.8 in ESE 11.1 mph 11.1 mph 51 % 0.0 in
13:03 21.2 °F 10.7 °F 1017.8 in ESE 9.0 mph 9.0 mph 51 % 0.0 in
13:08 21.1 °F 10.6 °F 1017.8 in NE 9.3 mph 9.3 mph 51 % 0.0 in
13:13 21.7 °F 11.1 °F 1017.8 in SSE 6.1 mph 6.1 mph 51 % 0.0 in
13:18 22.7 °F 12.1 °F 1017.8 in SSE 7.4 mph 7.4 mph 51 % 0.0 in
13:23 23.0 °F 11.7 °F 1017.8 in South 4.7 mph 4.7 mph 49 % 0.0 in
13:28 22.0 °F 10.8 °F 1017.8 in South 9.3 mph 9.3 mph 49 % 0.0 in
13:33 22.2 °F 11.0 °F 1017.8 in SE 7.4 mph 7.4 mph 49 % 0.0 in
13:38 22.4 °F 11.4 °F 1017.8 in SW 1.9 mph   50 % 0.0 in
13:43 23.4 °F 11.8 °F 1016.8 in South 3.7 mph 3.7 mph 48 % 0.0 in
13:48 23.7 °F 12.1 °F 1016.8 in ESE 5.8 mph 5.8 mph 48 % 0.0 in
13:53 22.9 °F 11.3 °F 1016.8 in ESE 6.9 mph 6.9 mph 48 % 0.0 in
13:58 23.1 °F 11.5 °F 1016.8 in ESE 7.9 mph 7.9 mph 48 % 0.0 in
14:03 22.2 °F 11.3 °F 1016.8 in ESE 9.7 mph 9.7 mph 50 % 0.0 in
14:08 22.1 °F 11.5 °F 1016.8 in ENE 14.8 mph 14.8 mph 51 % 0.0 in
14:13 21.9 °F 11.3 °F 1015.8 in ESE 13.7 mph 13.7 mph 51 % 0.0 in
14:18 21.8 °F 11.5 °F 1015.8 in ESE 7.4 mph 7.4 mph 52 % 0.0 in
14:23 22.2 °F 12.2 °F 1015.8 in ENE 10.8 mph 10.8 mph 53 % 0.0 in
14:28 21.7 °F 11.7 °F 1015.8 in ESE 14.8 mph 14.8 mph 53 % 0.0 in
14:33 21.7 °F 11.7 °F 1015.8 in ESE 3.7 mph 3.7 mph 53 % 0.0 in
14:38 21.8 °F 11.8 °F 1015.8 in SE 14.8 mph 14.8 mph 53 % 0.0 in
14:43 21.9 °F 12.2 °F 1014.8 in ESE 13.0 mph 13.0 mph 54 % 0.0 in
14:48 22.0 °F 12.3 °F 1014.8 in ENE 12.2 mph 12.2 mph 54 % 0.0 in
14:53 21.9 °F 12.4 °F 1014.8 in SE 16.7 mph 16.7 mph 55 % 0.0 in
14:58 21.7 °F 12.3 °F 1015.8 in East 16.7 mph 16.7 mph 55 % 0.0 in
15:03 21.7 °F 12.3 °F 1015.8 in ESE 13.0 mph 13.0 mph 55 % 0.0 in
15:08 21.6 °F 12.2 °F 1015.8 in NE 16.7 mph 16.7 mph 55 % 0.0 in
15:13 21.9 °F 12.4 °F 1015.8 in ENE 14.0 mph 14.0 mph 55 % 0.0 in
15:18 22.3 °F 12.8 °F 1015.8 in East 14.8 mph 14.8 mph 55 % 0.0 in
15:23 21.9 °F 13.0 °F 1015.8 in NE 16.7 mph 16.7 mph 57 % 0.0 in
15:28 21.7 °F 12.8 °F 1015.8 in West 11.1 mph 11.1 mph 57 % 0.0 in
15:33 21.5 °F 12.6 °F 1015.8 in NNE 16.9 mph 16.9 mph 57 % 0.0 in
15:38 21.6 °F 12.7 °F 1015.8 in SSE 16.7 mph 16.7 mph 57 % 0.0 in
15:43 21.5 °F 12.6 °F 1014.8 in ENE 16.7 mph 16.7 mph 57 % 0.0 in
15:48 21.3 °F 12.4 °F 1014.8 in SE 16.7 mph 16.7 mph 57 % 0.0 in
15:53 21.2 °F 12.6 °F 1014.8 in ENE 13.0 mph 13.0 mph 58 % 0.0 in
15:58 21.4 °F 12.5 °F 1015.8 in ESE 13.0 mph 13.0 mph 57 % 0.0 in
16:00 21.4 °F 12.5 °F 1015.8 in SE 20.1 mph 20.1 mph 57 % 0.0 in
16:05 21.2 °F 12.3 °F 1015.8 in NNE 13.0 mph 13.0 mph 57 % 0.0 in
16:10 21.2 °F 12.3 °F 1015.8 in East 11.1 mph 11.1 mph 57 % 0.0 in
16:15 21.7 °F 12.8 °F 1015.8 in SE 9.3 mph 9.3 mph 57 % 0.0 in
16:20 21.6 °F 12.7 °F 1015.8 in SE 7.9 mph 7.9 mph 57 % 0.0 in
16:25 21.5 °F 12.6 °F 1015.8 in ESE 16.7 mph 16.7 mph 57 % 0.0 in
16:30 21.3 °F 12.4 °F 1015.8 in ENE 14.8 mph 14.8 mph 57 % 0.0 in
16:35 21.2 °F 12.3 °F 1015.8 in East 9.3 mph 9.3 mph 57 % 0.0 in
16:40 21.0 °F 12.2 °F 1015.8 in ESE 11.1 mph 11.1 mph 57 % 0.0 in
16:45 21.0 °F 12.2 °F 1014.8 in ENE 11.1 mph 11.1 mph 57 % 0.0 in
16:50 21.0 °F 12.2 °F 1014.8 in NNE 11.1 mph 11.1 mph 57 % 0.0 in
16:55 20.8 °F 12.2 °F 1014.8 in East 11.1 mph 11.1 mph 58 % 0.0 in
17:00 20.8 °F 12.2 °F 1014.8 in East 9.3 mph 9.3 mph 58 % 0.0 in
17:05 20.6 °F 12.1 °F 1014.8 in ESE 11.1 mph 11.1 mph 58 % 0.0 in
17:10 20.3 °F 11.8 °F 1014.8 in NNW 14.8 mph 14.8 mph 58 % 0.0 in
17:15 20.3 °F 12.0 °F 1014.8 in ESE 18.5 mph 18.5 mph 59 % 0.0 in
17:21 20.4 °F 12.1 °F 1014.8 in East 9.3 mph 9.3 mph 59 % 0.0 in
17:26 20.5 °F 12.2 °F 1014.8 in ESE 13.0 mph 13.0 mph 59 % 0.0 in
17:31 20.4 °F 12.1 °F 1014.8 in ENE 14.8 mph 14.8 mph 59 % 0.0 in
17:36 20.4 °F 12.1 °F 1014.8 in ESE 9.3 mph 9.3 mph 59 % 0.0 in
17:41 20.4 °F 12.1 °F 1014.8 in ENE 13.0 mph 13.0 mph 59 % 0.0 in
17:46 20.1 °F 11.8 °F 1014.8 in ESE 13.0 mph 13.0 mph 59 % 0.0 in
17:51 20.1 °F 11.8 °F 1014.8 in ENE 13.0 mph 13.0 mph 59 % 0.0 in
17:56 19.9 °F 11.9 °F 1014.8 in ENE 9.3 mph 9.3 mph 60 % 0.0 in
18:02 20.0 °F 11.7 °F 1014.8 in North 11.1 mph 11.1 mph 59 % 0.0 in
18:07 19.8 °F 11.8 °F 1014.8 in ESE 9.3 mph 9.3 mph 60 % 0.0 in
18:12 19.9 °F 11.7 °F 1014.8 in ESE 11.1 mph 11.1 mph 59 % 0.0 in
18:17 20.0 °F 11.5 °F 1014.8 in ESE 14.8 mph 14.8 mph 58 % 0.0 in
18:22 20.0 °F 11.5 °F 1014.8 in East 9.3 mph 9.3 mph 58 % 0.0 in
18:27 19.9 °F 11.7 °F 1014.8 in ESE 16.1 mph 16.1 mph 59 % 0.0 in
18:32 19.8 °F 11.6 °F 1014.8 in SSE 13.0 mph 13.0 mph 59 % 0.0 in
18:37 19.8 °F 11.6 °F 1014.8 in East 9.3 mph 9.3 mph 59 % 0.0 in
18:42 19.6 °F 11.1 °F 1014.8 in East 9.3 mph 9.3 mph 58 % 0.0 in
18:47 19.5 °F 11.0 °F 1014.8 in ESE 9.3 mph 9.3 mph 58 % 0.0 in
18:52 19.5 °F 11.0 °F 1014.8 in SSE 9.3 mph 9.3 mph 58 % 0.0 in
18:57 19.5 °F 11.3 °F 1014.8 in SSE 5.6 mph 5.6 mph 59 % 0.0 in
19:02 19.5 °F 11.0 °F 1014.8 in ESE 5.8 mph 5.8 mph 58 % 0.0 in
19:07 19.4 °F 10.9 °F 1014.8 in WSW 5.6 mph 5.6 mph 58 % 0.0 in
19:12 19.5 °F 10.8 °F 1014.8 in SW 5.6 mph 5.6 mph 57 % 0.0 in
19:17 19.5 °F 10.5 °F 1014.8 in SSW 3.7 mph 3.7 mph 56 % 0.0 in
19:20 14.3 °F 7.8 °F 1015.8 in Calm     65 % 0.0 in
19:22 19.4 °F 10.4 °F 1014.8 in WNW 1.9 mph   56 % 0.0 in
19:27 19.3 °F 10.3 °F 1014.8 in SW 1.9 mph   56 % 0.0 in
19:30 14.3 °F 7.8 °F 1015.8 in Calm     65 % 0.0 in
19:32 19.3 °F 10.1 °F 1014.8 in West 3.7 mph 3.7 mph 55 % 0.0 in
19:37 19.2 °F 9.9 °F 1014.8 in WSW 3.7 mph 3.7 mph 55 % 0.0 in
19:40 14.1 °F 7.8 °F 1015.8 in Calm     66 % 0.0 in
19:42 19.2 °F 9.9 °F 1014.8 in South 7.4 mph 7.4 mph 55 % 0.0 in
19:47 19.1 °F 9.6 °F 1014.8 in SW 5.6 mph 5.6 mph 54 % 0.0 in
19:50 13.9 °F 7.7 °F 1015.8 in Calm     66 % 0.0 in
19:52 18.9 °F 9.4 °F 1014.8 in WSW 10.3 mph 10.3 mph 54 % 0.0 in
19:57 18.6 °F 9.1 °F 1014.8 in SW 9.3 mph 9.3 mph 54 % 0.0 in
20:00 13.7 °F 7.7 °F 1015.8 in Calm     67 % 0.0 in
20:02 18.3 °F 8.6 °F 1014.8 in West 7.4 mph 7.4 mph 53 % 0.0 in
20:08 18.2 °F 8.4 °F 1014.8 in SW 7.4 mph 7.4 mph 53 % 0.0 in
20:10 13.6 °F 7.6 °F 1015.8 in Calm     67 % 0.0 in
20:13 18.0 °F 8.3 °F 1015.8 in West 5.6 mph 5.6 mph 53 % 0.0 in
20:18 18.0 °F 8.3 °F 1015.8 in SW 5.6 mph 5.6 mph 53 % 0.0 in
20:20 13.6 °F 7.8 °F 1015.8 in Calm     68 % 0.0 in
20:23 17.8 °F 8.1 °F 1015.8 in West 3.7 mph 3.7 mph 53 % 0.0 in
20:28 17.7 °F 8.0 °F 1015.8 in SW 5.6 mph 5.6 mph 53 % 0.0 in
20:30 13.5 °F 7.9 °F 1015.8 in Calm     69 % 0.0 in
20:33 17.5 °F 7.8 °F 1015.8 in SW 5.8 mph 5.8 mph 53 % 0.0 in
20:38 17.4 °F 7.7 °F 1015.8 in SW 5.6 mph 5.6 mph 53 % 0.0 in
20:40 13.4 °F 7.8 °F 1015.8 in Calm     69 % 0.0 in
20:43 17.3 °F 7.6 °F 1015.8 in SW 5.6 mph 5.6 mph 53 % 0.0 in
20:48 17.1 °F 7.7 °F 1015.8 in WSW 7.4 mph 7.4 mph 54 % 0.0 in
20:50 13.2 °F 7.6 °F 1015.8 in NE 1.6 mph 3.2 mph 69 % 0.0 in
20:53 17.0 °F 7.6 °F 1015.8 in WSW 5.6 mph 5.6 mph 54 % 0.0 in
20:58 16.9 °F 7.8 °F 1015.8 in WSW 9.3 mph 9.3 mph 55 % 0.0 in
21:00 13.1 °F 7.6 °F 1015.8 in NE 1.6 mph 3.2 mph 69 % 0.0 in
21:03 16.8 °F 7.7 °F 1015.8 in WSW 7.4 mph 7.4 mph 55 % 0.0 in
21:08 16.7 °F 7.6 °F 1015.8 in SW 5.6 mph 5.6 mph 55 % 0.0 in
21:10 13.0 °F 7.7 °F 1015.8 in Calm   1.6 mph 70 % 0.0 in
21:13 16.6 °F 7.8 °F 1015.8 in SW 3.2 mph 3.2 mph 56 % 0.0 in
21:18 16.6 °F 7.8 °F 1015.8 in SW 3.9 mph 3.9 mph 56 % 0.0 in
21:20 12.8 °F 7.4 °F 1014.8 in NNE 1.6 mph 3.2 mph 70 % 0.0 in
21:23 16.5 °F 7.9 °F 1015.8 in West 3.7 mph 3.7 mph 57 % 0.0 in
21:28 16.4 °F 7.8 °F 1015.8 in WSW 3.7 mph 3.7 mph 57 % 0.0 in
21:30 12.6 °F 7.5 °F 1014.8 in NE 1.6 mph 1.6 mph 71 % 0.0 in
21:34 16.4 °F 7.8 °F 1015.8 in WSW 3.9 mph 3.9 mph 57 % 0.0 in
21:39 16.3 °F 8.0 °F 1015.8 in SW 4.7 mph 4.7 mph 58 % 0.0 in
21:40 12.5 °F 7.4 °F 1014.8 in Calm   1.6 mph 71 % 0.0 in
21:44 16.2 °F 7.9 °F 1015.8 in WSW 3.9 mph 3.9 mph 58 % 0.0 in
21:49 16.2 °F 8.2 °F 1015.8 in West 1.9 mph 1.9 mph 59 % 0.0 in
21:50 16.2 °F 8.2 °F 1015.8 in West 1.9 mph   59 % 0.0 in
21:55 16.1 °F 8.1 °F 1015.8 in WSW 3.7 mph 3.7 mph 59 % 0.0 in
22:00 16.0 °F 8.0 °F 1014.8 in West 2.6 mph 2.6 mph 59 % 0.0 in
22:05 16.0 °F 8.2 °F 1014.8 in WSW 1.9 mph   60 % 0.0 in
22:10 16.0 °F 8.2 °F 1014.8 in Calm     60 % 0.0 in
22:15 15.9 °F 8.2 °F 1015.8 in Calm     60 % 0.0 in
22:20 15.9 °F 8.4 °F 1015.8 in Calm     61 % 0.0 in
22:25 15.8 °F 8.3 °F 1015.8 in Calm     61 % 0.0 in
22:30 15.7 °F 8.2 °F 1015.8 in Calm     61 % 0.0 in
22:35 15.6 °F 8.1 °F 1015.8 in Calm     61 % 0.0 in
22:40 15.6 °F 8.1 °F 1015.8 in Calm     61 % 0.0 in
22:45 15.5 °F 8.2 °F 1015.8 in Calm     62 % 0.0 in
22:50 15.3 °F 8.1 °F 1015.8 in Calm     62 % 0.0 in
22:55 15.3 °F 8.1 °F 1015.8 in Calm     62 % 0.0 in
23:00 15.2 °F 7.9 °F 1014.8 in Calm     62 % 0.0 in
23:05 15.2 °F 8.2 °F 1014.8 in Calm     63 % 0.0 in
23:10 15.1 °F 8.1 °F 1014.8 in Calm     63 % 0.0 in
23:15 15.0 °F 8.0 °F 1015.8 in Calm     63 % 0.0 in
23:20 15.1 °F 8.3 °F 1015.8 in Calm     64 % 0.0 in
23:25 15.0 °F 8.2 °F 1015.8 in Calm     64 % 0.0 in
23:30 15.0 °F 8.2 °F 1015.8 in Calm     64 % 0.0 in
23:35 14.9 °F 8.2 °F 1015.8 in Calm     64 % 0.0 in
23:40 14.7 °F 7.9 °F 1015.8 in Calm     64 % 0.0 in
23:45 14.7 °F 7.9 °F 1014.8 in Calm     64 % 0.0 in
23:50 14.6 °F 7.9 °F 1014.8 in Calm     64 % 0.0 in
23:55 14.6 °F 7.9 °F 1014.8 in Calm     64 % 0.0 in
Meteo Sesrovires
Elogis d' Weather Underground - 1.5 mb

Guio original per  Jim McMurry - jmcmurry@mwt.net Adaptat per a la plantilla per  Wim van der Kuil - Leuven-Template.eu

Trobareu la nostra informacio del temps tambe a:

Weather Underground

AWEKAS